createdAt,value
2019-02-08T00:02:47.400Z,96.08
2019-02-08T00:05:50.077Z,84.75
2019-02-08T00:08:53.730Z,110.37
2019-02-08T00:11:57.410Z,95.87
2019-02-08T00:15:05.935Z,115.00
2019-02-08T00:18:09.907Z,109.37
2019-02-08T00:21:13.721Z,101.20
2019-02-08T00:24:16.698Z,89.37
2019-02-08T00:27:16.980Z,94.80
2019-02-08T00:30:20.713Z,95.10
2019-02-08T00:33:24.169Z,91.85
2019-02-08T00:36:25.656Z,105.35
2019-02-08T00:39:29.038Z,99.72
2019-02-08T00:42:32.151Z,104.03
2019-02-08T00:45:35.844Z,127.53
2019-02-08T00:48:39.528Z,112.57
2019-02-08T00:51:38.818Z,113.45
2019-02-08T00:54:40.595Z,123.07
2019-02-08T00:57:40.061Z,106.70
2019-02-08T01:00:40.327Z,105.50
2019-02-08T01:03:44.225Z,118.93
2019-02-08T01:06:47.748Z,108.97
2019-02-08T01:09:51.504Z,105.72
2019-02-08T01:12:51.120Z,111.22
2019-02-08T01:15:55.642Z,111.47
2019-02-08T01:18:58.684Z,116.10
2019-02-08T01:22:02.341Z,111.22
2019-02-08T01:25:06.496Z,126.80
2019-02-08T01:28:10.080Z,118.13
2019-02-08T01:31:11.354Z,119.02
2019-02-08T01:34:15.074Z,121.17
2019-02-08T01:37:18.433Z,120.67
2019-02-08T01:40:22.698Z,116.30
2019-02-08T01:43:26.935Z,120.17
2019-02-08T01:46:31.157Z,115.03
2019-02-08T01:49:35.320Z,118.62
2019-02-08T01:52:31.615Z,91.25
2019-02-08T01:55:27.313Z,94.25
2019-02-08T02:01:21.914Z,117.40
2019-02-08T02:04:26.299Z,107.67
2019-02-08T02:07:35.105Z,94.20
2019-02-08T02:10:32.782Z,94.17
2019-02-08T02:13:27.792Z,95.85
2019-02-08T02:16:22.913Z,100.33
2019-02-08T02:19:23.698Z,93.72
2019-02-08T02:22:18.654Z,103.53
2019-02-08T02:25:15.012Z,101.45
2019-02-08T02:28:10.247Z,110.90
2019-02-08T02:34:00.570Z,122.65
2019-02-08T02:36:55.913Z,123.47
2019-02-08T02:39:51.034Z,114.12
2019-02-08T02:42:46.519Z,99.07
2019-02-08T02:45:50.015Z,96.15
2019-02-08T02:48:45.235Z,89.20
2019-02-08T02:51:40.805Z,96.92
2019-02-08T02:54:44.610Z,109.65
2019-02-08T02:57:40.154Z,103.17
2019-02-08T03:00:40.792Z,113.68
2019-02-08T03:03:43.828Z,120.00
2019-02-08T03:06:44.950Z,112.65
2019-02-08T03:09:43.809Z,108.65
2019-02-08T03:12:48.246Z,118.45
2019-02-08T03:15:52.503Z,110.35
2019-02-08T03:18:57.074Z,102.45
2019-02-08T03:22:00.905Z,117.57
2019-02-08T03:25:04.131Z,99.03
2019-02-08T03:28:03.658Z,96.75
2019-02-08T03:34:21.572Z,80.10
2019-02-08T03:37:27.736Z,85.90
2019-02-08T03:40:33.795Z,95.22
2019-02-08T03:43:37.228Z,92.57
2019-02-08T03:46:41.121Z,90.62
2019-02-08T03:49:39.335Z,102.05
2019-02-08T03:52:41.274Z,102.45
2019-02-08T03:59:05.116Z,104.65
2019-02-08T04:02:09.581Z,94.70
2019-02-08T04:05:15.995Z,92.30
2019-02-08T04:08:19.521Z,97.42
2019-02-08T04:11:23.236Z,91.85
2019-02-08T04:14:29.852Z,100.67
2019-02-08T04:17:30.944Z,101.78
2019-02-08T04:20:37.325Z,92.33
2019-02-08T04:23:48.064Z,92.02
2019-02-08T04:26:52.464Z,89.62
2019-02-08T04:29:56.014Z,90.25
2019-02-08T04:32:59.741Z,101.82
2019-02-08T04:35:54.572Z,92.78
2019-02-08T04:38:52.067Z,91.53
2019-02-08T04:41:48.278Z,90.87
2019-02-08T04:44:46.168Z,87.75
2019-02-08T04:47:41.065Z,98.95
2019-02-08T04:50:38.981Z,92.12
2019-02-08T04:53:34.640Z,93.72
2019-02-08T04:56:30.026Z,87.12
2019-02-08T04:59:28.355Z,92.65
2019-02-08T05:02:24.442Z,113.00
2019-02-08T05:08:53.937Z,95.03
2019-02-08T05:11:48.825Z,91.00
2019-02-08T05:14:44.043Z,95.55
2019-02-08T05:17:38.637Z,103.72
2019-02-08T05:20:41.549Z,105.07
2019-02-08T05:23:44.202Z,99.45
2019-02-08T05:26:42.098Z,95.92
2019-02-08T05:30:15.145Z,91.40
2019-02-08T05:33:25.891Z,95.30
2019-02-08T05:36:26.087Z,94.52
2019-02-08T05:39:21.731Z,93.35
2019-02-08T05:42:35.661Z,98.55
2019-02-08T05:46:41.796Z,128.57
2019-02-08T05:49:38.261Z,128.02
2019-02-08T05:52:58.067Z,111.30
2019-02-08T05:55:48.257Z,120.02
2019-02-08T05:58:57.241Z,102.82
2019-02-08T06:01:52.880Z,101.90
2019-02-08T06:04:56.587Z,106.55
2019-02-08T06:07:52.730Z,96.25
2019-02-08T06:10:50.086Z,112.32
2019-02-08T06:13:49.237Z,93.85
2019-02-08T06:17:00.498Z,98.87
2019-02-08T06:20:42.570Z,94.35
2019-02-08T06:23:50.654Z,101.15
2019-02-08T06:27:12.156Z,103.65
2019-02-08T06:30:49.782Z,106.97
2019-02-08T06:34:25.476Z,91.63
2019-02-08T06:42:57.262Z,99.92
2019-02-08T06:45:48.774Z,93.03
2019-02-08T06:48:58.471Z,84.32
2019-02-08T06:52:29.079Z,100.40
2019-02-08T06:55:47.522Z,94.90
2019-02-08T06:58:51.653Z,88.35
2019-02-08T07:02:06.569Z,87.40
2019-02-08T07:05:26.419Z,78.75
2019-02-08T07:08:29.486Z,86.02
2019-02-08T07:12:06.446Z,74.60
2019-02-08T07:15:32.037Z,83.92
2019-02-08T07:18:51.098Z,85.20
2019-02-08T07:25:46.622Z,102.00
2019-02-08T07:32:37.377Z,99.90
2019-02-08T07:36:10.995Z,109.40
2019-02-08T07:39:27.564Z,116.70
2019-02-08T07:42:46.346Z,136.40
2019-02-08T07:46:03.510Z,148.07
2019-02-08T07:49:14.849Z,142.37
2019-02-08T07:52:29.668Z,132.82
2019-02-08T07:55:50.552Z,137.90
2019-02-08T07:59:03.638Z,131.78
2019-02-08T08:02:34.331Z,145.20
2019-02-08T08:05:42.460Z,154.03
2019-02-08T08:08:55.600Z,177.17
2019-02-08T08:12:08.518Z,157.97
2019-02-08T08:15:28.449Z,162.95
2019-02-08T08:18:44.560Z,163.12
2019-02-08T08:21:58.714Z,161.97
2019-02-08T08:25:18.983Z,153.55
2019-02-08T08:28:41.291Z,147.20
2019-02-08T08:32:37.300Z,147.20
2019-02-08T08:36:25.971Z,152.70
2019-02-08T08:39:49.822Z,154.85
2019-02-08T08:43:06.718Z,153.82
2019-02-08T08:46:21.215Z,156.50
2019-02-08T08:49:53.455Z,138.30
2019-02-08T08:53:46.080Z,138.88
2019-02-08T08:57:49.052Z,151.22
2019-02-08T09:01:43.294Z,149.93
2019-02-08T09:05:14.421Z,140.97
2019-02-08T09:08:29.613Z,144.20
2019-02-08T09:11:58.800Z,145.60
2019-02-08T09:15:56.897Z,149.42
2019-02-08T09:20:09.856Z,141.60
2019-02-08T09:28:11.971Z,142.93
2019-02-08T09:32:05.672Z,157.03
2019-02-08T09:35:50.746Z,184.18
2019-02-08T09:39:24.028Z,157.12
2019-02-08T09:43:17.236Z,167.77
2019-02-08T09:51:25.730Z,154.55
2019-02-08T09:54:59.940Z,148.57
2019-02-08T09:58:27.534Z,147.45
2019-02-08T10:01:54.703Z,152.93
2019-02-08T10:05:44.615Z,155.07
2019-02-08T10:09:23.554Z,155.95
2019-02-08T10:13:16.126Z,158.63
2019-02-08T10:16:50.587Z,149.10
2019-02-08T10:20:23.357Z,153.47
2019-02-08T10:23:55.929Z,153.42
2019-02-08T10:27:42.238Z,162.65
2019-02-08T10:34:18.395Z,144.95
2019-02-08T10:38:18.345Z,147.28
2019-02-08T10:41:48.416Z,146.82
2019-02-08T10:45:25.187Z,142.80
2019-02-08T10:52:27.380Z,142.65
2019-02-08T10:56:01.634Z,144.17
2019-02-08T10:59:38.413Z,142.80
2019-02-08T11:02:44.867Z,142.98
2019-02-08T11:06:31.553Z,149.42
2019-02-08T11:10:20.849Z,139.95
2019-02-08T11:14:17.434Z,136.97
2019-02-08T11:18:04.125Z,149.05
2019-02-08T11:20:59.783Z,148.45
2019-02-08T11:23:55.625Z,145.02
2019-02-08T11:26:51.412Z,147.07
2019-02-08T11:29:46.697Z,144.30
2019-02-08T11:32:45.052Z,154.70
2019-02-08T11:35:43.826Z,136.35
2019-02-08T11:38:37.035Z,133.50
2019-02-08T11:41:38.424Z,133.95
2019-02-08T11:44:41.063Z,137.57
2019-02-08T11:47:38.866Z,133.40
2019-02-08T11:50:35.560Z,135.65
2019-02-08T11:53:34.192Z,139.30
2019-02-08T11:56:34.619Z,143.00
2019-02-08T11:59:30.632Z,142.10
2019-02-08T12:02:26.882Z,139.55
2019-02-08T12:05:26.206Z,141.47
2019-02-08T12:08:23.524Z,155.87
2019-02-08T12:11:19.283Z,148.25
2019-02-08T12:14:15.804Z,133.90
2019-02-08T12:17:12.258Z,133.07
2019-02-08T12:20:10.328Z,150.65
2019-02-08T12:23:07.230Z,137.97
2019-02-08T12:26:03.122Z,137.52
2019-02-08T12:28:58.041Z,139.37
2019-02-08T12:31:52.925Z,141.20
2019-02-08T12:34:48.800Z,141.10
2019-02-08T12:37:51.359Z,141.43
2019-02-08T12:40:47.268Z,151.45
2019-02-08T12:43:43.217Z,157.93
2019-02-08T12:46:40.759Z,169.62
2019-02-08T12:49:36.313Z,164.22
2019-02-08T12:52:31.450Z,172.57
2019-02-08T12:55:27.838Z,172.45
2019-02-08T12:58:23.614Z,160.07
2019-02-08T13:01:19.171Z,170.22
2019-02-08T13:04:14.541Z,177.70
2019-02-08T13:07:10.394Z,173.47
2019-02-08T13:10:06.973Z,167.75
2019-02-08T13:13:02.305Z,204.00
2019-02-08T13:15:57.538Z,203.75
2019-02-08T13:18:52.869Z,253.37
2019-02-08T13:21:48.242Z,238.28
2019-02-08T13:24:43.282Z,253.55
2019-02-08T13:27:40.625Z,242.03
2019-02-08T13:30:35.643Z,227.65
2019-02-08T13:33:30.904Z,240.20
2019-02-08T13:36:25.738Z,220.97
2019-02-08T13:39:21.337Z,185.52
2019-02-08T13:42:16.147Z,194.13
2019-02-08T13:45:12.461Z,204.87
2019-02-08T13:48:07.479Z,189.32
2019-02-08T13:51:01.994Z,189.07
2019-02-08T13:53:57.103Z,196.47
2019-02-08T13:57:00.210Z,196.22
2019-02-08T13:59:48.463Z,181.80
2019-02-08T14:02:43.986Z,187.97
2019-02-08T14:05:39.238Z,170.38
2019-02-08T14:08:35.732Z,196.07
2019-02-08T14:11:33.558Z,192.95
2019-02-08T14:14:28.952Z,189.70
2019-02-08T14:17:23.861Z,186.97
2019-02-08T14:20:21.508Z,193.40
2019-02-08T14:23:17.010Z,213.45
2019-02-08T14:26:12.268Z,225.78
2019-02-08T14:29:07.574Z,201.37
2019-02-08T14:32:02.691Z,245.78
2019-02-08T14:34:57.324Z,220.40
2019-02-08T14:37:52.591Z,217.95
2019-02-08T14:40:47.569Z,207.10
2019-02-08T14:43:42.496Z,185.15
2019-02-08T14:47:33.870Z,224.52
2019-02-08T14:51:00.423Z,203.30
2019-02-08T14:53:55.349Z,222.95
2019-02-08T14:56:59.697Z,221.50
2019-02-08T14:59:55.083Z,233.47
2019-02-08T15:02:50.947Z,215.37
2019-02-08T15:05:46.147Z,221.62
2019-02-08T15:08:40.893Z,227.70
2019-02-08T15:11:35.562Z,226.12
2019-02-08T15:14:30.476Z,241.20
2019-02-08T15:17:25.290Z,225.00
2019-02-08T15:20:23.370Z,200.78
2019-02-08T15:23:18.343Z,219.93
2019-02-08T15:26:12.927Z,197.17
2019-02-08T15:29:07.916Z,205.18
2019-02-08T15:32:02.728Z,199.17
2019-02-08T15:34:57.309Z,200.20
2019-02-08T15:37:52.270Z,237.08
2019-02-08T15:40:49.840Z,215.12
2019-02-08T15:43:45.061Z,222.22
2019-02-08T15:46:39.827Z,210.35
2019-02-08T15:49:34.523Z,204.68
2019-02-08T15:52:29.393Z,214.27
2019-02-08T15:55:26.849Z,194.17
2019-02-08T15:58:21.958Z,209.43
2019-02-08T16:01:17.365Z,200.10
2019-02-08T16:04:12.167Z,216.73
2019-02-08T16:07:06.861Z,206.17
2019-02-08T16:10:01.892Z,197.28
2019-02-08T16:12:56.537Z,211.35
2019-02-08T16:15:51.605Z,215.47
2019-02-08T16:18:47.042Z,199.30
2019-02-08T16:21:42.302Z,193.07
2019-02-08T16:24:37.002Z,215.75
2019-02-08T16:27:38.764Z,207.65
2019-02-08T16:30:28.960Z,183.82
2019-02-08T16:33:23.681Z,195.30
2019-02-08T16:36:18.293Z,193.30
2019-02-08T16:39:14.920Z,199.15
2019-02-08T16:42:09.518Z,190.62
2019-02-08T16:45:04.175Z,183.85
2019-02-08T16:47:59.937Z,197.40
2019-02-08T16:50:54.968Z,185.95
2019-02-08T16:53:53.571Z,180.27
2019-02-08T16:56:45.839Z,186.97
2019-02-08T16:59:40.382Z,181.37
2019-02-08T17:02:35.054Z,200.82
2019-02-08T17:05:31.008Z,182.75
2019-02-08T17:08:25.578Z,212.10
2019-02-08T17:11:20.330Z,186.20
2019-02-08T17:14:15.130Z,202.90
2019-02-08T17:17:10.057Z,174.60
2019-02-08T17:20:05.260Z,180.50
2019-02-08T17:22:59.964Z,191.98
2019-02-08T17:25:54.748Z,184.48
2019-02-08T17:28:49.599Z,180.00
2019-02-08T17:31:44.524Z,181.30
2019-02-08T17:34:39.359Z,174.23
2019-02-08T17:37:34.178Z,176.53
2019-02-08T17:40:30.898Z,197.37
2019-02-08T17:43:26.397Z,186.22
2019-02-08T17:46:21.500Z,220.05
2019-02-08T17:49:16.876Z,209.60
2019-02-08T17:52:11.584Z,203.90
2019-02-08T17:55:07.064Z,194.60
2019-02-08T17:58:03.909Z,186.43
2019-02-08T18:00:59.826Z,224.50
2019-02-08T18:03:54.863Z,174.93
2019-02-08T18:06:49.795Z,183.05
2019-02-08T18:09:44.770Z,177.50
2019-02-08T18:12:39.757Z,176.85
2019-02-08T18:15:34.517Z,161.05
2019-02-08T18:18:31.346Z,194.60
2019-02-08T18:21:25.955Z,173.00
2019-02-08T18:24:20.655Z,178.50
2019-02-08T18:27:15.472Z,195.72
2019-02-08T18:30:11.408Z,188.70
2019-02-08T18:33:06.190Z,213.75
2019-02-08T18:36:00.931Z,191.92
2019-02-08T18:38:57.264Z,193.68
2019-02-08T18:41:50.843Z,185.67
2019-02-08T18:44:45.794Z,208.90
2019-02-08T18:47:41.063Z,199.57
2019-02-08T18:50:41.368Z,184.85
2019-02-08T18:53:36.099Z,185.25
2019-02-08T18:56:30.719Z,179.97
2019-02-08T18:59:26.212Z,182.57
2019-02-08T19:02:20.977Z,192.92
2019-02-08T19:05:16.870Z,186.97
2019-02-08T19:08:12.332Z,186.07
2019-02-08T19:11:07.379Z,191.70
2019-02-08T19:14:02.030Z,182.47
2019-02-08T19:16:56.997Z,167.98
2019-02-08T19:19:51.896Z,164.22
2019-02-08T19:22:47.244Z,174.93
2019-02-08T19:25:44.148Z,173.00
2019-02-08T19:28:38.907Z,172.10
2019-02-08T19:31:33.835Z,173.85
2019-02-08T19:34:29.356Z,182.37
2019-02-08T19:37:24.198Z,207.00
2019-02-08T19:40:24.281Z,188.32
2019-02-08T19:43:19.167Z,174.62
2019-02-08T19:46:13.933Z,173.78
2019-02-08T19:49:08.544Z,184.05
2019-02-08T19:52:03.415Z,182.93
2019-02-08T19:54:58.366Z,172.47
2019-02-08T19:57:53.462Z,171.05
2019-02-08T20:00:49.468Z,188.65
2019-02-08T20:03:44.251Z,184.75
2019-02-08T20:06:39.066Z,171.55
2019-02-08T20:09:33.984Z,180.03
2019-02-08T20:12:29.383Z,186.00
2019-02-08T20:15:24.278Z,184.50
2019-02-08T20:18:19.508Z,180.37
2019-02-08T20:21:14.059Z,186.20
2019-02-08T20:24:09.217Z,175.70
2019-02-08T20:27:04.040Z,182.35
2019-02-08T20:29:58.727Z,189.70
2019-02-08T20:32:53.517Z,178.25
2019-02-08T20:35:48.086Z,177.82
2019-02-08T20:38:42.889Z,178.00
2019-02-08T20:41:37.717Z,174.60
2019-02-08T20:44:32.697Z,177.05
2019-02-08T20:47:27.549Z,183.78
2019-02-08T20:50:22.785Z,185.78
2019-02-08T20:53:17.817Z,178.05
2019-02-08T20:56:12.905Z,158.93
2019-02-08T20:59:07.775Z,172.72
2019-02-08T21:02:02.761Z,164.85
2019-02-08T21:04:57.677Z,150.97
2019-02-08T21:07:52.388Z,164.35
2019-02-08T21:10:47.521Z,150.68
2019-02-08T21:13:42.223Z,156.67
2019-02-08T21:16:37.123Z,163.05
2019-02-08T21:19:32.670Z,149.93
2019-02-08T21:22:27.175Z,157.12
2019-02-08T21:25:25.371Z,152.27
2019-02-08T21:28:20.443Z,162.88
2019-02-08T21:31:15.216Z,145.00
2019-02-08T21:34:10.045Z,151.27
2019-02-08T21:37:04.860Z,144.28
2019-02-08T21:39:59.433Z,152.57
2019-02-08T21:42:54.265Z,139.35
2019-02-08T21:45:50.078Z,148.53
2019-02-08T21:48:44.883Z,154.55
2019-02-08T21:51:39.530Z,142.57
2019-02-08T21:54:34.323Z,134.70
2019-02-08T21:57:28.887Z,138.35
2019-02-08T22:00:47.850Z,125.47
2019-02-08T22:03:42.540Z,124.95
2019-02-08T22:06:37.185Z,132.47
2019-02-08T22:09:31.874Z,143.28
2019-02-08T22:12:26.729Z,122.70
2019-02-08T22:15:24.219Z,128.38
2019-02-08T22:18:19.060Z,101.82
2019-02-08T22:21:13.661Z,85.15
2019-02-08T22:24:08.771Z,91.40
2019-02-08T22:27:03.331Z,93.75
2019-02-08T22:29:58.335Z,86.80
2019-02-08T22:32:55.745Z,89.13
2019-02-08T22:35:50.717Z,89.77
2019-02-08T22:38:45.324Z,80.20
2019-02-08T22:41:40.393Z,87.42
2019-02-08T22:44:35.267Z,84.60
2019-02-08T22:47:29.789Z,83.85
2019-02-08T22:50:24.654Z,86.50
2019-02-08T22:53:19.202Z,76.65
2019-02-08T22:56:13.924Z,76.02
2019-02-08T22:59:09.153Z,77.37
2019-02-08T23:02:04.759Z,68.75
2019-02-08T23:04:59.311Z,63.73
2019-02-08T23:07:54.102Z,67.22
2019-02-08T23:10:48.668Z,65.57
2019-02-08T23:13:43.508Z,60.45
2019-02-08T23:16:38.306Z,78.33
2019-02-08T23:19:33.171Z,55.52
2019-02-08T23:22:28.027Z,58.80
2019-02-08T23:25:22.768Z,56.10
2019-02-08T23:28:17.467Z,50.15
2019-02-08T23:31:12.030Z,61.75
2019-02-08T23:34:06.728Z,52.70
2019-02-08T23:37:01.478Z,55.58
2019-02-08T23:39:56.139Z,47.88
2019-02-08T23:42:50.916Z,50.98
2019-02-08T23:45:45.939Z,51.75
2019-02-08T23:48:40.779Z,45.43
2019-02-08T23:51:35.324Z,46.05
2019-02-08T23:54:29.983Z,45.92
2019-02-08T23:57:24.726Z,62.40
